sensor_id;sensor_type;location;lat;lon;timestamp;pressure;altitude;pressure_sealevel;temperature;humidity
63339;BME280;47485;51.378;-1.342;2023-02-13T00:01:47;102073.42;;;4.17;29.86
63339;BME280;47485;51.378;-1.342;2023-02-13T00:04:13;102069.86;;;6.26;29.22
63339;BME280;47485;51.378;-1.342;2023-02-13T00:06:40;102066.44;;;5.85;29.86
63339;BME280;47485;51.378;-1.342;2023-02-13T00:09:07;102064.56;;;4.02;30.64
63339;BME280;47485;51.378;-1.342;2023-02-13T00:11:34;102070.04;;;0.48;33.27
63339;BME280;47485;51.378;-1.342;2023-02-13T00:14:01;102067.02;;;1.95;32.80
63339;BME280;47485;51.378;-1.342;2023-02-13T00:16:28;102069.84;;;1.74;33.12
63339;BME280;47485;51.378;-1.342;2023-02-13T00:18:55;102065.72;;;3.97;31.83
63339;BME280;47485;51.378;-1.342;2023-02-13T00:21:23;102062.16;;;3.84;31.48
63339;BME280;47485;51.378;-1.342;2023-02-13T00:23:50;102064.29;;;2.30;32.75
63339;BME280;47485;51.378;-1.342;2023-02-13T00:26:17;102059.04;;;2.61;32.95
63339;BME280;47485;51.378;-1.342;2023-02-13T00:28:45;102056.53;;;3.12;33.21
63339;BME280;47485;51.378;-1.342;2023-02-13T00:31:13;102053.43;;;1.42;32.18
63339;BME280;47485;51.378;-1.342;2023-02-13T00:33:40;102053.19;;;3.19;32.02
63339;BME280;47485;51.378;-1.342;2023-02-13T00:36:09;102047.15;;;5.46;30.52
63339;BME280;47485;51.378;-1.342;2023-02-13T00:38:37;102046.68;;;1.60;34.25
63339;BME280;47485;51.378;-1.342;2023-02-13T00:41:05;102049.22;;;2.11;34.26
63339;BME280;47485;51.378;-1.342;2023-02-13T00:43:37;102050.04;;;4.36;32.94
63339;BME280;47485;51.378;-1.342;2023-02-13T00:46:05;102057.63;;;0.26;36.93
63339;BME280;47485;51.378;-1.342;2023-02-13T00:48:33;102058.08;;;-1.22;38.71
63339;BME280;47485;51.378;-1.342;2023-02-13T00:51:00;102050.73;;;2.50;36.34
63339;BME280;47485;51.378;-1.342;2023-02-13T00:53:27;102051.15;;;-0.25;37.84
63339;BME280;47485;51.378;-1.342;2023-02-13T00:55:55;102051.06;;;-1.39;38.64
63339;BME280;47485;51.378;-1.342;2023-02-13T00:58:22;102044.46;;;1.97;36.48
63339;BME280;47485;51.378;-1.342;2023-02-13T01:00:50;102044.80;;;2.59;34.21
63339;BME280;47485;51.378;-1.342;2023-02-13T01:03:18;102048.03;;;1.97;35.05
63339;BME280;47485;51.378;-1.342;2023-02-13T01:05:46;102046.75;;;2.19;34.63
63339;BME280;47485;51.378;-1.342;2023-02-13T01:08:14;102041.77;;;2.92;33.69
63339;BME280;47485;51.378;-1.342;2023-02-13T01:10:44;102039.50;;;2.53;33.80
63339;BME280;47485;51.378;-1.342;2023-02-13T01:13:12;102039.86;;;2.20;34.12
63339;BME280;47485;51.378;-1.342;2023-02-13T01:15:40;102040.20;;;3.27;32.63
63339;BME280;47485;51.378;-1.342;2023-02-13T01:18:07;102042.13;;;3.21;32.76
63339;BME280;47485;51.378;-1.342;2023-02-13T01:20:35;102035.79;;;2.59;32.80
63339;BME280;47485;51.378;-1.342;2023-02-13T01:23:02;102038.03;;;2.72;32.50
63339;BME280;47485;51.378;-1.342;2023-02-13T01:25:28;102038.44;;;4.24;31.72
63339;BME280;47485;51.378;-1.342;2023-02-13T01:27:55;102042.86;;;3.11;31.94
63339;BME280;47485;51.378;-1.342;2023-02-13T01:30:22;102042.17;;;2.95;32.52
63339;BME280;47485;51.378;-1.342;2023-02-13T01:32:49;102040.02;;;2.30;32.31
63339;BME280;47485;51.378;-1.342;2023-02-13T01:35:16;102037.45;;;5.76;30.07
63339;BME280;47485;51.378;-1.342;2023-02-13T01:37:43;102042.28;;;2.62;34.20
63339;BME280;47485;51.378;-1.342;2023-02-13T01:40:12;102041.17;;;1.43;34.66
63339;BME280;47485;51.378;-1.342;2023-02-13T01:42:39;102040.61;;;3.30;32.63
63339;BME280;47485;51.378;-1.342;2023-02-13T01:45:19;102042.81;;;2.62;34.64
63339;BME280;47485;51.378;-1.342;2023-02-13T01:47:50;102044.45;;;2.83;33.54
63339;BME280;47485;51.378;-1.342;2023-02-13T01:50:22;102046.98;;;6.72;30.71
63339;BME280;47485;51.378;-1.342;2023-02-13T01:52:52;102047.81;;;2.57;32.06
63339;BME280;47485;51.378;-1.342;2023-02-13T01:55:21;102048.86;;;2.25;33.13
63339;BME280;47485;51.378;-1.342;2023-02-13T01:57:52;102049.53;;;6.48;30.19
63339;BME280;47485;51.378;-1.342;2023-02-13T02:00:20;102045.71;;;6.89;28.68
63339;BME280;47485;51.378;-1.342;2023-02-13T02:02:50;102051.85;;;3.35;31.94
63339;BME280;47485;51.378;-1.342;2023-02-13T02:05:21;102049.51;;;4.35;31.54
63339;BME280;47485;51.378;-1.342;2023-02-13T02:07:50;102046.70;;;4.49;30.57
63339;BME280;47485;51.378;-1.342;2023-02-13T02:10:18;102042.91;;;4.39;29.76
63339;BME280;47485;51.378;-1.342;2023-02-13T02:12:49;102043.55;;;2.64;31.93
63339;BME280;47485;51.378;-1.342;2023-02-13T02:15:18;102040.36;;;4.67;31.69
63339;BME280;47485;51.378;-1.342;2023-02-13T02:17:45;102035.53;;;4.74;31.26
63339;BME280;47485;51.378;-1.342;2023-02-13T02:20:23;102032.75;;;4.09;32.39
63339;BME280;47485;51.378;-1.342;2023-02-13T02:23:12;102032.42;;;4.03;31.41
63339;BME280;47485;51.378;-1.342;2023-02-13T02:25:59;102030.13;;;4.91;30.23
63339;BME280;47485;51.378;-1.342;2023-02-13T02:28:51;102026.35;;;6.15;28.65
63339;BME280;47485;51.378;-1.342;2023-02-13T02:33:46;102024.81;;;5.56;29.03
63339;BME280;47485;51.378;-1.342;2023-02-13T02:36:24;102023.45;;;6.28;28.77
63339;BME280;47485;51.378;-1.342;2023-02-13T02:39:02;102017.67;;;7.00;27.35
63339;BME280;47485;51.378;-1.342;2023-02-13T02:41:41;102018.77;;;8.07;26.28
63339;BME280;47485;51.378;-1.342;2023-02-13T02:44:30;102026.58;;;7.64;28.05
63339;BME280;47485;51.378;-1.342;2023-02-13T02:47:08;102028.08;;;5.39;29.48
63339;BME280;47485;51.378;-1.342;2023-02-13T02:49:40;102025.25;;;5.22;29.06
63339;BME280;47485;51.378;-1.342;2023-02-13T02:52:14;102020.91;;;6.38;28.25
63339;BME280;47485;51.378;-1.342;2023-02-13T02:54:47;102018.32;;;4.60;27.96
63339;BME280;47485;51.378;-1.342;2023-02-13T02:57:20;102016.20;;;7.09;26.89
63339;BME280;47485;51.378;-1.342;2023-02-13T02:59:49;102014.60;;;4.67;28.92
63339;BME280;47485;51.378;-1.342;2023-02-13T03:02:17;102008.78;;;5.89;27.96
63339;BME280;47485;51.378;-1.342;2023-02-13T03:04:47;102011.96;;;5.76;28.12
63339;BME280;47485;51.378;-1.342;2023-02-13T03:07:18;102015.42;;;5.74;28.97
63339;BME280;47485;51.378;-1.342;2023-02-13T03:09:48;102011.45;;;5.65;28.05
63339;BME280;47485;51.378;-1.342;2023-02-13T03:12:20;102016.63;;;2.86;30.79
63339;BME280;47485;51.378;-1.342;2023-02-13T03:14:48;102013.48;;;4.21;30.30
63339;BME280;47485;51.378;-1.342;2023-02-13T03:17:16;102015.68;;;3.10;30.96
63339;BME280;47485;51.378;-1.342;2023-02-13T03:19:56;102011.61;;;4.57;30.23
63339;BME280;47485;51.378;-1.342;2023-02-13T03:22:30;102005.26;;;6.15;28.46
63339;BME280;47485;51.378;-1.342;2023-02-13T03:25:07;102007.55;;;5.70;28.16
63339;BME280;47485;51.378;-1.342;2023-02-13T03:27:43;102013.19;;;3.29;31.49
63339;BME280;47485;51.378;-1.342;2023-02-13T03:30:20;102012.24;;;4.11;30.40
63339;BME280;47485;51.378;-1.342;2023-02-13T03:32:59;102010.30;;;3.99;30.84
63339;BME280;47485;51.378;-1.342;2023-02-13T03:35:37;102010.52;;;3.56;31.71
63339;BME280;47485;51.378;-1.342;2023-02-13T03:38:12;102005.72;;;5.61;30.41
63339;BME280;47485;51.378;-1.342;2023-02-13T03:40:46;102006.23;;;3.01;31.76
63339;BME280;47485;51.378;-1.342;2023-02-13T03:43:16;102001.07;;;3.20;31.86
63339;BME280;47485;51.378;-1.342;2023-02-13T03:45:45;101997.29;;;4.77;29.67
63339;BME280;47485;51.378;-1.342;2023-02-13T03:48:15;102003.90;;;0.14;32.54
63339;BME280;47485;51.378;-1.342;2023-02-13T03:50:44;102001.68;;;4.83;30.28
63339;BME280;47485;51.378;-1.342;2023-02-13T03:53:12;102000.26;;;4.90;29.43
63339;BME280;47485;51.378;-1.342;2023-02-13T03:55:42;102001.09;;;3.93;29.78
63339;BME280;47485;51.378;-1.342;2023-02-13T03:58:14;102000.56;;;4.53;29.53
63339;BME280;47485;51.378;-1.342;2023-02-13T04:00:47;101997.35;;;2.70;30.94
63339;BME280;47485;51.378;-1.342;2023-02-13T04:03:21;101999.66;;;4.73;29.79
63339;BME280;47485;51.378;-1.342;2023-02-13T04:06:00;101992.06;;;4.65;29.39
63339;BME280;47485;51.378;-1.342;2023-02-13T04:08:28;101988.98;;;5.34;28.02
63339;BME280;47485;51.378;-1.342;2023-02-13T04:10:59;101992.18;;;5.29;27.37
63339;BME280;47485;51.378;-1.342;2023-02-13T04:13:32;101992.44;;;4.23;28.71
63339;BME280;47485;51.378;-1.342;2023-02-13T04:16:05;101992.63;;;3.83;28.92
63339;BME280;47485;51.378;-1.342;2023-02-13T04:18:34;101991.76;;;4.56;28.09
63339;BME280;47485;51.378;-1.342;2023-02-13T04:21:01;101994.70;;;3.88;29.06
63339;BME280;47485;51.378;-1.342;2023-02-13T04:23:30;102000.94;;;2.61;29.30
63339;BME280;47485;51.378;-1.342;2023-02-13T04:25:59;101997.72;;;4.31;28.42
63339;BME280;47485;51.378;-1.342;2023-02-13T04:28:27;101995.76;;;5.45;27.71
63339;BME280;47485;51.378;-1.342;2023-02-13T04:31:00;101995.75;;;4.61;27.86
63339;BME280;47485;51.378;-1.342;2023-02-13T04:33:26;101994.19;;;5.48;27.84
63339;BME280;47485;51.378;-1.342;2023-02-13T04:35:53;101993.29;;;6.17;26.70
63339;BME280;47485;51.378;-1.342;2023-02-13T04:38:20;101988.58;;;5.40;27.63
63339;BME280;47485;51.378;-1.342;2023-02-13T04:40:47;101987.15;;;4.59;28.16
63339;BME280;47485;51.378;-1.342;2023-02-13T04:43:13;101985.73;;;5.64;27.39
63339;BME280;47485;51.378;-1.342;2023-02-13T04:45:40;101985.32;;;4.59;28.01
63339;BME280;47485;51.378;-1.342;2023-02-13T04:48:07;101982.99;;;5.17;27.68
63339;BME280;47485;51.378;-1.342;2023-02-13T04:50:39;101982.84;;;3.39;28.20
63339;BME280;47485;51.378;-1.342;2023-02-13T04:53:06;101983.79;;;6.18;27.27
63339;BME280;47485;51.378;-1.342;2023-02-13T04:55:33;101984.88;;;6.63;26.78
63339;BME280;47485;51.378;-1.342;2023-02-13T04:58:01;101988.54;;;7.23;26.16
63339;BME280;47485;51.378;-1.342;2023-02-13T05:00:28;101991.48;;;4.88;27.41
63339;BME280;47485;51.378;-1.342;2023-02-13T05:02:59;101999.91;;;3.41;29.50
63339;BME280;47485;51.378;-1.342;2023-02-13T05:05:30;101989.44;;;5.05;27.90
63339;BME280;47485;51.378;-1.342;2023-02-13T05:07:57;101988.78;;;4.03;28.37
63339;BME280;47485;51.378;-1.342;2023-02-13T05:10:24;101989.67;;;5.26;27.55
63339;BME280;47485;51.378;-1.342;2023-02-13T05:12:51;101992.06;;;4.70;27.97
63339;BME280;47485;51.378;-1.342;2023-02-13T05:15:18;101988.35;;;6.75;26.84
63339;BME280;47485;51.378;-1.342;2023-02-13T05:17:45;101988.11;;;6.46;26.74
63339;BME280;47485;51.378;-1.342;2023-02-13T05:20:13;101987.61;;;9.85;24.13
63339;BME280;47485;51.378;-1.342;2023-02-13T05:22:43;101985.93;;;7.94;25.73
63339;BME280;47485;51.378;-1.342;2023-02-13T05:25:09;101984.20;;;4.85;27.90
63339;BME280;47485;51.378;-1.342;2023-02-13T05:27:36;101983.52;;;6.38;27.04
63339;BME280;47485;51.378;-1.342;2023-02-13T05:30:04;101987.62;;;4.54;28.39
63339;BME280;47485;51.378;-1.342;2023-02-13T05:32:32;101982.82;;;6.86;26.33
63339;BME280;47485;51.378;-1.342;2023-02-13T05:34:59;101985.40;;;5.93;27.93
63339;BME280;47485;51.378;-1.342;2023-02-13T05:37:26;101986.25;;;5.04;27.38
63339;BME280;47485;51.378;-1.342;2023-02-13T05:39:53;101986.02;;;6.88;26.51
63339;BME280;47485;51.378;-1.342;2023-02-13T05:42:20;101984.67;;;6.57;26.26
63339;BME280;47485;51.378;-1.342;2023-02-13T05:44:47;101985.56;;;4.09;27.55
63339;BME280;47485;51.378;-1.342;2023-02-13T05:47:14;101981.07;;;6.76;26.25
63339;BME280;47485;51.378;-1.342;2023-02-13T05:49:41;101975.82;;;4.50;27.35
63339;BME280;47485;51.378;-1.342;2023-02-13T05:52:09;101991.84;;;1.43;29.99
63339;BME280;47485;51.378;-1.342;2023-02-13T05:54:35;101980.18;;;4.53;27.81
63339;BME280;47485;51.378;-1.342;2023-02-13T05:57:02;101977.59;;;5.70;26.75
63339;BME280;47485;51.378;-1.342;2023-02-13T05:59:30;101970.49;;;5.51;27.48
63339;BME280;47485;51.378;-1.342;2023-02-13T06:01:57;101967.39;;;5.00;27.46
63339;BME280;47485;51.378;-1.342;2023-02-13T06:04:24;101965.23;;;5.07;26.72
63339;BME280;47485;51.378;-1.342;2023-02-13T06:06:52;101966.91;;;5.58;26.68
63339;BME280;47485;51.378;-1.342;2023-02-13T06:09:18;101971.14;;;4.77;28.74
63339;BME280;47485;51.378;-1.342;2023-02-13T06:11:45;101972.68;;;4.27;28.63
63339;BME280;47485;51.378;-1.342;2023-02-13T06:14:12;101965.47;;;5.46;27.57
63339;BME280;47485;51.378;-1.342;2023-02-13T06:16:39;101964.84;;;5.94;28.50
63339;BME280;47485;51.378;-1.342;2023-02-13T06:19:10;101961.62;;;5.90;28.41
63339;BME280;47485;51.378;-1.342;2023-02-13T06:21:37;101961.49;;;5.84;27.35
63339;BME280;47485;51.378;-1.342;2023-02-13T06:24:05;101963.06;;;5.02;27.20
63339;BME280;47485;51.378;-1.342;2023-02-13T06:26:33;101965.90;;;4.34;28.41
63339;BME280;47485;51.378;-1.342;2023-02-13T06:29:01;101964.65;;;6.70;26.93
63339;BME280;47485;51.378;-1.342;2023-02-13T06:31:28;101960.07;;;6.60;26.79
63339;BME280;47485;51.378;-1.342;2023-02-13T06:33:54;101960.09;;;5.60;27.07
63339;BME280;47485;51.378;-1.342;2023-02-13T06:36:21;101956.60;;;3.59;28.67
63339;BME280;47485;51.378;-1.342;2023-02-13T06:38:48;101954.22;;;6.04;27.18
63339;BME280;47485;51.378;-1.342;2023-02-13T06:41:15;101959.82;;;4.07;28.81
63339;BME280;47485;51.378;-1.342;2023-02-13T06:43:41;101958.39;;;5.63;27.66
63339;BME280;47485;51.378;-1.342;2023-02-13T06:46:08;101962.34;;;2.82;29.01
63339;BME280;47485;51.378;-1.342;2023-02-13T06:48:35;101958.20;;;5.25;28.42
63339;BME280;47485;51.378;-1.342;2023-02-13T06:51:02;101961.86;;;4.04;28.48
63339;BME280;47485;51.378;-1.342;2023-02-13T06:53:29;101967.20;;;4.15;29.08
63339;BME280;47485;51.378;-1.342;2023-02-13T06:55:56;101969.51;;;3.61;28.86
63339;BME280;47485;51.378;-1.342;2023-02-13T06:58:24;101968.27;;;4.29;28.27
63339;BME280;47485;51.378;-1.342;2023-02-13T07:00:52;101966.26;;;6.81;27.53
63339;BME280;47485;51.378;-1.342;2023-02-13T07:03:19;101968.71;;;3.73;28.43
63339;BME280;47485;51.378;-1.342;2023-02-13T07:05:46;101968.24;;;6.09;27.42
63339;BME280;47485;51.378;-1.342;2023-02-13T07:08:13;101971.92;;;4.43;28.64
63339;BME280;47485;51.378;-1.342;2023-02-13T07:10:41;101967.96;;;6.06;27.79
63339;BME280;47485;51.378;-1.342;2023-02-13T07:13:09;101974.87;;;6.47;27.20
63339;BME280;47485;51.378;-1.342;2023-02-13T07:15:36;101973.24;;;5.67;28.14
63339;BME280;47485;51.378;-1.342;2023-02-13T07:18:04;101978.86;;;1.42;33.25
63339;BME280;47485;51.378;-1.342;2023-02-13T07:20:32;101973.11;;;4.90;29.68
63339;BME280;47485;51.378;-1.342;2023-02-13T07:23:00;101971.79;;;4.11;29.38
63339;BME280;47485;51.378;-1.342;2023-02-13T07:25:28;101976.37;;;2.45;32.08
63339;BME280;47485;51.378;-1.342;2023-02-13T07:28:00;101973.34;;;5.38;28.99
63339;BME280;47485;51.378;-1.342;2023-02-13T07:30:26;101973.88;;;4.22;28.93
63339;BME280;47485;51.378;-1.342;2023-02-13T07:32:53;101979.72;;;3.50;29.93
63339;BME280;47485;51.378;-1.342;2023-02-13T07:35:23;101977.08;;;2.07;30.90
63339;BME280;47485;51.378;-1.342;2023-02-13T07:37:51;101979.23;;;2.78;31.95
63339;BME280;47485;51.378;-1.342;2023-02-13T07:40:19;101978.26;;;1.71;32.13
63339;BME280;47485;51.378;-1.342;2023-02-13T07:42:45;101980.09;;;4.86;29.78
63339;BME280;47485;51.378;-1.342;2023-02-13T07:45:12;101976.39;;;5.27;29.01
63339;BME280;47485;51.378;-1.342;2023-02-13T07:47:40;101983.28;;;0.32;32.64
63339;BME280;47485;51.378;-1.342;2023-02-13T07:50:07;101985.93;;;4.34;29.79
63339;BME280;47485;51.378;-1.342;2023-02-13T07:52:35;101983.74;;;4.42;29.31
63339;BME280;47485;51.378;-1.342;2023-02-13T07:55:02;101987.16;;;4.42;30.09
63339;BME280;47485;51.378;-1.342;2023-02-13T07:57:30;101988.79;;;2.82;31.20
63339;BME280;47485;51.378;-1.342;2023-02-13T07:59:56;101992.95;;;4.72;29.98
63339;BME280;47485;51.378;-1.342;2023-02-13T08:02:23;101983.44;;;5.61;28.91
63339;BME280;47485;51.378;-1.342;2023-02-13T08:04:49;101980.22;;;5.67;28.50
63339;BME280;47485;51.378;-1.342;2023-02-13T08:07:16;101984.56;;;2.96;29.72
63339;BME280;47485;51.378;-1.342;2023-02-13T08:09:44;101976.57;;;4.30;28.74
63339;BME280;47485;51.378;-1.342;2023-02-13T08:12:11;101978.12;;;4.35;29.47
63339;BME280;47485;51.378;-1.342;2023-02-13T08:14:38;101979.04;;;1.64;31.42
63339;BME280;47485;51.378;-1.342;2023-02-13T08:17:05;101974.23;;;4.06;29.23
63339;BME280;47485;51.378;-1.342;2023-02-13T08:19:33;101969.80;;;6.10;27.65
63339;BME280;47485;51.378;-1.342;2023-02-13T08:21:59;101977.64;;;1.12;32.22
63339;BME280;47485;51.378;-1.342;2023-02-13T08:24:26;101981.44;;;3.03;30.86
63339;BME280;47485;51.378;-1.342;2023-02-13T08:26:55;101982.91;;;2.75;31.02
63339;BME280;47485;51.378;-1.342;2023-02-13T08:29:23;101982.14;;;2.41;31.23
63339;BME280;47485;51.378;-1.342;2023-02-13T08:31:50;101982.74;;;2.35;31.39
63339;BME280;47485;51.378;-1.342;2023-02-13T08:34:16;101980.57;;;4.04;29.73
63339;BME280;47485;51.378;-1.342;2023-02-13T08:36:43;101990.50;;;4.86;29.68
63339;BME280;47485;51.378;-1.342;2023-02-13T08:39:10;101988.73;;;4.57;31.11
63339;BME280;47485;51.378;-1.342;2023-02-13T08:41:37;101985.79;;;1.66;32.11
63339;BME280;47485;51.378;-1.342;2023-02-13T08:44:04;101987.23;;;5.12;30.63
63339;BME280;47485;51.378;-1.342;2023-02-13T08:46:32;101986.98;;;4.96;30.00
63339;BME280;47485;51.378;-1.342;2023-02-13T08:48:59;101985.88;;;4.88;29.69
63339;BME280;47485;51.378;-1.342;2023-02-13T08:51:26;101987.82;;;4.39;30.00
63339;BME280;47485;51.378;-1.342;2023-02-13T08:53:52;101987.80;;;3.10;31.10
63339;BME280;47485;51.378;-1.342;2023-02-13T08:56:19;101982.07;;;5.50;29.43
63339;BME280;47485;51.378;-1.342;2023-02-13T08:58:47;101984.17;;;5.68;29.22
63339;BME280;47485;51.378;-1.342;2023-02-13T09:01:14;101982.28;;;5.94;29.05
63339;BME280;47485;51.378;-1.342;2023-02-13T09:03:41;101990.41;;;3.74;30.76
63339;BME280;47485;51.378;-1.342;2023-02-13T09:06:08;101995.26;;;2.84;30.83
63339;BME280;47485;51.378;-1.342;2023-02-13T09:08:35;101988.40;;;4.68;29.81
63339;BME280;47485;51.378;-1.342;2023-02-13T09:11:03;101991.64;;;3.01;30.26
63339;BME280;47485;51.378;-1.342;2023-02-13T09:13:32;101993.49;;;4.24;30.81
63339;BME280;47485;51.378;-1.342;2023-02-13T09:16:01;101993.74;;;3.68;32.10
63339;BME280;47485;51.378;-1.342;2023-02-13T09:18:28;101990.71;;;4.18;30.54
63339;BME280;47485;51.378;-1.342;2023-02-13T09:20:58;101989.87;;;4.85;30.03
63339;BME280;47485;51.378;-1.342;2023-02-13T09:23:26;101984.03;;;8.39;27.98
63339;BME280;47485;51.378;-1.342;2023-02-13T09:25:58;101987.94;;;7.32;28.21
63339;BME280;47485;51.378;-1.342;2023-02-13T09:28:24;101990.24;;;4.54;29.94
63339;BME280;47485;51.378;-1.342;2023-02-13T09:30:51;101989.22;;;5.67;29.02
63339;BME280;47485;51.378;-1.342;2023-02-13T09:33:18;101990.19;;;7.07;28.39
63339;BME280;47485;51.378;-1.342;2023-02-13T09:35:45;101989.24;;;7.15;27.63
63339;BME280;47485;51.378;-1.342;2023-02-13T09:38:11;101990.99;;;4.19;29.60
63339;BME280;47485;51.378;-1.342;2023-02-13T09:40:44;101992.17;;;4.96;29.90
63339;BME280;47485;51.378;-1.342;2023-02-13T09:43:14;101989.61;;;5.15;30.08
63339;BME280;47485;51.378;-1.342;2023-02-13T09:45:43;101983.28;;;6.63;29.31
63339;BME280;47485;51.378;-1.342;2023-02-13T09:48:18;101988.04;;;1.67;32.25
63339;BME280;47485;51.378;-1.342;2023-02-13T09:50:46;101990.73;;;1.66;32.56
63339;BME280;47485;51.378;-1.342;2023-02-13T09:53:20;101991.05;;;2.74;32.24
63339;BME280;47485;51.378;-1.342;2023-02-13T09:55:53;101991.31;;;0.74;33.53
63339;BME280;47485;51.378;-1.342;2023-02-13T09:58:31;101980.23;;;6.31;29.59
63339;BME280;47485;51.378;-1.342;2023-02-13T10:01:02;101979.51;;;5.78;29.36
63339;BME280;47485;51.378;-1.342;2023-02-13T10:03:34;101987.53;;;4.15;30.12
63339;BME280;47485;51.378;-1.342;2023-02-13T10:06:07;101984.18;;;1.33;32.68
63339;BME280;47485;51.378;-1.342;2023-02-13T10:08:50;101983.77;;;3.24;32.11
63339;BME280;47485;51.378;-1.342;2023-02-13T10:12:07;101978.79;;;4.23;30.58
63339;BME280;47485;51.378;-1.342;2023-02-13T10:14:43;101972.27;;;5.24;30.66
63339;BME280;47485;51.378;-1.342;2023-02-13T10:17:15;101977.33;;;3.78;31.06
63339;BME280;47485;51.378;-1.342;2023-02-13T10:19:46;101972.57;;;5.35;30.97
63339;BME280;47485;51.378;-1.342;2023-02-13T10:22:17;101973.01;;;3.40;32.27
63339;BME280;47485;51.378;-1.342;2023-02-13T10:24:47;101972.34;;;2.25;33.14
63339;BME280;47485;51.378;-1.342;2023-02-13T10:27:20;101974.76;;;4.46;32.76
63339;BME280;47485;51.378;-1.342;2023-02-13T10:29:54;101973.77;;;2.47;33.21
63339;BME280;47485;51.378;-1.342;2023-02-13T10:32:29;101976.63;;;3.08;33.24
63339;BME280;47485;51.378;-1.342;2023-02-13T10:35:01;101969.81;;;4.92;31.92
63339;BME280;47485;51.378;-1.342;2023-02-13T10:37:29;101969.29;;;4.90;33.51
63339;BME280;47485;51.378;-1.342;2023-02-13T10:39:56;101961.36;;;2.84;33.58
63339;BME280;47485;51.378;-1.342;2023-02-13T10:42:29;101962.66;;;4.09;33.05
63339;BME280;47485;51.378;-1.342;2023-02-13T10:45:09;101960.07;;;2.05;34.24
63339;BME280;47485;51.378;-1.342;2023-02-13T10:47:50;101963.53;;;2.78;34.96
63339;BME280;47485;51.378;-1.342;2023-02-13T10:50:29;101969.88;;;1.65;34.97
63339;BME280;47485;51.378;-1.342;2023-02-13T10:53:10;101964.27;;;3.33;32.92
63339;BME280;47485;51.378;-1.342;2023-02-13T10:55:55;101967.91;;;-0.67;35.79
63339;BME280;47485;51.378;-1.342;2023-02-13T10:58:33;101965.85;;;0.57;35.66
63339;BME280;47485;51.378;-1.342;2023-02-13T11:01:06;101960.34;;;1.46;35.39
63339;BME280;47485;51.378;-1.342;2023-02-13T11:03:34;101959.08;;;4.19;33.64
63339;BME280;47485;51.378;-1.342;2023-02-13T11:06:05;101963.33;;;2.93;34.98
63339;BME280;47485;51.378;-1.342;2023-02-13T11:08:34;101961.84;;;4.36;32.89
63339;BME280;47485;51.378;-1.342;2023-02-13T11:11:27;101963.20;;;1.52;35.84
63339;BME280;47485;51.378;-1.342;2023-02-13T11:14:07;101960.31;;;1.58;36.45
63339;BME280;47485;51.378;-1.342;2023-02-13T11:16:40;101964.03;;;1.86;34.93
63339;BME280;47485;51.378;-1.342;2023-02-13T11:19:16;101962.07;;;3.05;36.10
63339;BME280;47485;51.378;-1.342;2023-02-13T11:21:44;101957.46;;;0.76;37.02
63339;BME280;47485;51.378;-1.342;2023-02-13T11:24:18;101955.57;;;2.72;34.22
63339;BME280;47485;51.378;-1.342;2023-02-13T11:26:52;101949.69;;;2.67;34.27
63339;BME280;47485;51.378;-1.342;2023-02-13T11:29:23;101955.76;;;1.06;36.32
63339;BME280;47485;51.378;-1.342;2023-02-13T11:32:03;101951.07;;;2.23;35.24
63339;BME280;47485;51.378;-1.342;2023-02-13T11:34:33;101957.45;;;3.73;34.09
63339;BME280;47485;51.378;-1.342;2023-02-13T11:37:16;101953.53;;;1.74;35.16
63339;BME280;47485;51.378;-1.342;2023-02-13T11:39:45;101951.92;;;0.52;35.96
63339;BME280;47485;51.378;-1.342;2023-02-13T11:42:14;101948.57;;;2.03;36.78
63339;BME280;47485;51.378;-1.342;2023-02-13T11:44:47;101943.03;;;1.66;36.17
63339;BME280;47485;51.378;-1.342;2023-02-13T11:47:15;101943.14;;;-0.10;38.86
63339;BME280;47485;51.378;-1.342;2023-02-13T11:49:45;101940.49;;;3.25;36.19
63339;BME280;47485;51.378;-1.342;2023-02-13T11:52:24;101938.02;;;0.15;39.34
63339;BME280;47485;51.378;-1.342;2023-02-13T11:54:57;101938.60;;;0.96;37.75
63339;BME280;47485;51.378;-1.342;2023-02-13T11:57:28;101940.94;;;-0.72;40.12
63339;BME280;47485;51.378;-1.342;2023-02-13T11:59:57;101929.59;;;2.91;37.06
63339;BME280;47485;51.378;-1.342;2023-02-13T12:02:25;101923.79;;;0.59;38.08
63339;BME280;47485;51.378;-1.342;2023-02-13T12:04:54;101916.95;;;1.59;37.18
63339;BME280;47485;51.378;-1.342;2023-02-13T12:07:40;101916.73;;;4.30;34.69
63339;BME280;47485;51.378;-1.342;2023-02-13T12:10:16;101911.48;;;2.67;36.54
63339;BME280;47485;51.378;-1.342;2023-02-13T12:12:47;101911.67;;;2.72;35.66
63339;BME280;47485;51.378;-1.342;2023-02-13T12:15:19;101902.92;;;3.99;34.43
63339;BME280;47485;51.378;-1.342;2023-02-13T12:17:56;101900.93;;;1.71;37.60
63339;BME280;47485;51.378;-1.342;2023-02-13T12:20:26;101895.25;;;2.54;35.90
63339;BME280;47485;51.378;-1.342;2023-02-13T12:23:02;101891.12;;;5.39;33.66
63339;BME280;47485;51.378;-1.342;2023-02-13T12:25:42;101896.06;;;2.48;35.72
63339;BME280;47485;51.378;-1.342;2023-02-13T12:28:14;101891.26;;;2.59;35.08
63339;BME280;47485;51.378;-1.342;2023-02-13T12:30:59;101892.00;;;0.65;38.30
63339;BME280;47485;51.378;-1.342;2023-02-13T12:33:47;101891.19;;;0.71;36.59
63339;BME280;47485;51.378;-1.342;2023-02-13T12:36:20;101887.00;;;2.48;36.29
63339;BME280;47485;51.378;-1.342;2023-02-13T12:39:00;101877.49;;;3.70;33.48
63339;BME280;47485;51.378;-1.342;2023-02-13T12:41:39;101879.94;;;2.36;34.28
63339;BME280;47485;51.378;-1.342;2023-02-13T12:44:23;101876.18;;;2.29;34.78
63339;BME280;47485;51.378;-1.342;2023-02-13T12:47:03;101871.58;;;6.22;30.74
63339;BME280;47485;51.378;-1.342;2023-02-13T12:49:43;101879.49;;;1.08;35.60
63339;BME280;47485;51.378;-1.342;2023-02-13T12:52:29;101864.65;;;7.45;31.01
63339;BME280;47485;51.378;-1.342;2023-02-13T12:55:12;101869.54;;;5.39;33.34
63339;BME280;47485;51.378;-1.342;2023-02-13T12:57:52;101865.54;;;5.04;32.37
63339;BME280;47485;51.378;-1.342;2023-02-13T13:00:32;101864.41;;;6.95;30.64
63339;BME280;47485;51.378;-1.342;2023-02-13T13:03:15;101867.29;;;8.00;31.13
63339;BME280;47485;51.378;-1.342;2023-02-13T13:06:00;101863.26;;;6.42;32.15
63339;BME280;47485;51.378;-1.342;2023-02-13T13:08:41;101859.31;;;6.77;31.68
63339;BME280;47485;51.378;-1.342;2023-02-13T13:11:21;101860.70;;;4.13;32.72